Lippert, North Dakota
Current Conditions -  °F | °C
As of 7:56 PM on Thursday 20 Nov 2014 (Local Time) from KJMS Reporting Station
Clear Clear  
Wind Chill: -3°   Ceiling: Unl
Heat Index: 10°   Visibility: 10mi
Dew Point:   Wind: 9mph
Humidity: 80%   Direction: 180°S
Pressure: 30.03"   Gusts: NA
Location:  46.8494°N, 98.7424°W
Report Text: KJMS 210156Z AUTO 18008KT 10SM CLR M12/M15 A3003 RMK AO2 SLP207 T11221150
Loading
Personal Weather Stations






























Interactive Weather Map New forecast layout! Learn more

10-Day Weather Forecast

Advertisements
Track Severe Weather on mobile